Time;durP1;ratioP1;P1;durP2;ratioP2;P2;SDS_P1;SDS_P2;PMS_P1;PMS_P2;Temp;Humidity;BMP_temperature;BMP_pressure;BME280_temperature;BME280_humidity;BME280_pressure;Samples;Min_cycle;Max_cycle;Signal;HPM_P1;HPM_P2
2022/09/03 00:01:34;;;;;;;4.75;3.97;;;;;;;25.12;100.00;-18089.53;5091089;28;20212;-63
2022/09/03 00:04:10;;;;;;;5.20;4.70;;;;;;;25.01;100.00;-17761.91;5091272;28;20211;-62
2022/09/03 00:06:43;;;;;;;4.43;4.03;;;;;;;24.76;100.00;-17756.25;5090874;28;20196;-62
2022/09/03 00:09:17;;;;;;;4.20;3.80;;;;;;;24.35;100.00;-18398.75;5090894;28;20180;-63
2022/09/03 00:11:50;;;;;;;4.10;3.67;;;;;;;24.41;100.00;-18400.06;5089920;28;20227;-62
2022/09/03 00:14:22;;;;;;;5.40;3.72;;;;;;;24.35;100.00;-18398.75;5090830;28;20224;-63
2022/09/03 00:16:54;;;;;;;4.45;3.58;;;;;;;24.37;100.00;-18399.13;5091263;28;20184;-63
2022/09/03 00:19:27;;;;;;;7.85;3.47;;;;;;;24.29;100.00;-17096.00;5094036;28;20558;-63
2022/09/03 00:22:00;;;;;;;8.18;3.75;;;;;;;24.20;100.00;-17743.78;5094604;28;20585;-63
2022/09/03 00:24:34;;;;;;;3.83;3.22;;;;;;;24.14;100.00;-17742.53;5094536;28;20190;-62
2022/09/03 00:27:06;;;;;;;4.55;3.28;;;;;;;24.05;100.00;-17740.50;5094314;28;20184;-61
2022/09/03 00:29:37;;;;;;;3.15;2.90;;;;;;;23.92;100.00;-18062.19;5094552;28;20522;-63
2022/09/03 00:32:11;;;;;;;4.30;3.03;;;;;;;24.01;100.00;-18064.16;5094266;28;20204;-62
2022/09/03 00:34:44;;;;;;;4.28;3.83;;;;;;;24.07;100.00;-18390.34;5094237;28;20180;-63
2022/09/03 00:37:11;;;;;;;6.45;4.00;;;;;;;23.92;100.00;-18388.56;5094103;28;20190;-62
2022/09/03 00:39:39;;;;;;;8.50;4.22;;;;;;;23.99;100.00;-18388.44;5094053;28;20184;-62
2022/09/03 00:42:22;;;;;;;4.57;3.88;;;;;;;23.90;100.00;-18061.72;5094264;28;20639;-62
2022/09/03 00:45:02;;;;;;;4.68;3.65;;;;;;;24.01;100.00;-17414.88;5094044;28;20184;-63
2022/09/03 00:47:39;;;;;;;6.47;4.20;;;;;;;24.06;100.00;-15141.94;5093784;28;20613;-62
2022/09/03 00:50:17;;;;;;;5.45;3.75;;;;;;;24.01;100.00;-14166.03;5094214;28;20630;-61
2022/09/03 00:53:00;;;;;;;4.38;3.95;;;;;;;23.97;100.00;-13515.22;5093868;28;20199;-62
2022/09/03 00:55:38;;;;;;;4.10;3.80;;;;;;;24.07;100.00;-12541.16;5093708;28;20215;-62
2022/09/03 00:58:24;;;;;;;5.40;3.65;;;;;;;24.10;100.00;-12216.41;5093980;28;20252;-62
2022/09/03 01:00:52;;;;;;;5.35;3.97;;;;;;;24.21;100.00;-9614.06;5093613;28;20192;-62
2022/09/03 01:03:32;;;;;;;4.97;3.97;;;;;;;24.16;100.00;-9287.94;5093997;28;20250;-62
2022/09/03 01:06:14;;;;;;;5.00;4.25;;;;;;;23.75;100.00;-14811.38;5093514;28;20184;-63
2022/09/03 01:09:03;;;;;;;4.80;3.95;;;;;;;23.55;100.00;-16431.09;5093855;28;20546;-62
2022/09/03 01:11:38;;;;;;;4.25;3.78;;;;;;;23.66;100.00;-17731.66;5093342;28;20272;-63
2022/09/03 01:14:15;;;;;;;6.07;3.60;;;;;;;23.70;100.00;-16109.50;5093417;28;20188;-63
2022/09/03 01:16:51;;;;;;;4.28;3.55;;;;;;;23.64;100.00;-14809.41;5093445;28;20275;-62
2022/09/03 01:19:54;;;;;;;4.03;3.72;;;;;;;23.78;100.00;-14162.13;5093571;28;20179;-62
2022/09/03 01:22:57;;;;;;;4.28;3.88;;;;;;;23.87;100.00;-13513.63;5093410;28;20574;-61
2022/09/03 01:25:39;;;;;;;3.78;3.60;;;;;;;23.97;100.00;-9611.78;5092932;28;20231;-62
2022/09/03 01:28:32;;;;;;;4.97;3.22;;;;;;;23.91;100.00;-7657.91;5093283;28;20200;-62
2022/09/03 01:31:19;;;;;;;3.95;3.53;;;;;;;24.02;100.00;-6681.38;5090683;28;20199;-62
2022/09/03 01:33:56;;;;;;;5.65;3.28;;;;;;;24.02;100.00;-6681.38;5093040;28;20188;-62
2022/09/03 01:36:32;;;;;;;3.95;3.65;;;;;;;24.02;100.00;-6355.56;5093181;28;20187;-62
2022/09/03 01:39:03;;;;;;;7.50;3.83;;;;;;;24.01;100.00;-7007.09;5093242;28;20183;-61
2022/09/03 01:44:37;;;;;;;4.03;3.42;;;;;;;24.03;100.00;-3095.56;5092853;28;20297;-62
2022/09/03 01:47:13;;;;;;;3.60;3.05;;;;;;;23.96;100.00;-1138.28;5092740;28;20290;-62
2022/09/03 01:49:49;;;;;;;2.90;2.75;;;;;;;23.85;100.00;493.00;5092923;28;20184;-62
2022/09/03 01:52:27;;;;;;;3.00;2.90;;;;;;;23.61;100.00;4082.78;5092769;28;20210;-62
2022/09/03 01:55:09;;;;;;;4.88;2.15;;;;;;;23.75;100.00;8661.88;5092516;28;20183;-62
2022/09/03 01:57:47;;;;;;;2.40;2.30;;;;;;;23.46;100.00;5060.78;5093107;28;20187;-62
2022/09/03 02:00:17;;;;;;;2.85;2.75;;;;;;;23.13;100.00;-4073.19;5092839;28;20658;-62
2022/09/03 02:02:46;;;;;;;2.72;2.63;;;;;;;23.02;100.00;-7977.28;5092409;28;20211;-62
2022/09/03 02:05:16;;;;;;;4.18;2.72;;;;;;;22.81;100.00;-12523.25;5092383;28;20188;-62
2022/09/03 02:07:45;;;;;;;3.03;2.63;;;;;;;22.63;100.00;-13818.41;5092350;28;20180;-62
2022/09/03 02:10:14;;;;;;;4.90;3.10;;;;;;;22.75;100.00;-15117.84;5092605;28;20269;-61
2022/09/03 02:12:45;;;;;;;3.03;2.80;;;;;;;22.81;100.00;-15118.88;5092299;28;20275;-62
2022/09/03 02:15:16;;;;;;;2.80;2.60;;;;;;;22.89;100.00;-14471.63;5092454;28;20577;-62
2022/09/03 02:17:43;;;;;;;2.85;2.75;;;;;;;;;;5091011;28;20270;-62
2022/09/03 02:20:17;;;;;;;2.75;2.55;;;;;;;22.70;100.00;-13495.22;5092429;28;20220;-62
2022/09/03 02:22:44;;;;;;;4.85;2.60;;;;;;;22.72;100.00;-15441.56;5091980;28;20200;-62
2022/09/03 02:25:11;;;;;;;2.47;2.38;;;;;;;22.74;100.00;-15766.19;5092334;28;20271;-62
2022/09/03 02:27:38;;;;;;;2.53;2.42;;;;;;;22.70;100.00;-16089.59;5091965;28;20216;-63
2022/09/03 02:30:06;;;;;;;2.75;2.60;;;;;;;22.70;100.00;-15441.28;5092418;28;20499;-62
2022/09/03 02:32:35;;;;;;;3.08;2.97;;;;;;;22.55;100.00;-13492.81;5092033;28;20195;-62
2022/09/03 02:35:02;;;;;;;2.95;2.85;;;;;;;22.40;100.00;-11868.53;5092265;28;20635;-62
2022/09/03 02:37:29;;;;;;;3.90;3.67;;;;;;;22.45;100.00;-10571.06;5091791;28;20184;-62
2022/09/03 02:39:56;;;;;;;3.83;3.45;;;;;;;22.05;100.00;-9268.81;5091772;28;20192;-62
2022/09/03 02:42:23;;;;;;;3.60;3.40;;;;;;;22.25;100.00;-8296.63;5091803;28;20253;-62
2022/09/03 02:44:53;;;;;;;3.88;3.67;;;;;;;22.07;100.00;-6671.69;5092086;28;20613;-62
2022/09/03 02:47:20;;;;;;;3.88;3.75;;;;;;;21.97;100.00;-4397.19;5091587;28;20318;-62
2022/09/03 02:49:49;;;;;;;3.72;3.33;;;;;;;21.84;100.00;-5696.34;5091809;28;20188;-61
2022/09/03 02:52:17;;;;;;;3.90;3.50;;;;;;;21.78;100.00;-6994.84;5092241;28;20188;-62
2022/09/03 02:54:44;;;;;;;3.95;3.75;;;;;;;21.67;100.00;-7318.75;5091929;28;20528;-63
2022/09/03 02:57:14;;;;;;;5.82;4.07;;;;;;;21.50;100.00;-8290.91;5091940;28;20607;-61
2022/09/03 02:59:42;;;;;;;3.53;3.33;;;;;;;21.53;100.00;-7966.72;5091792;28;20528;-63
2022/09/03 03:02:10;;;;;;;4.00;3.72;;;;;;;21.48;100.00;-8615.03;5091418;28;20204;-62
2022/09/03 03:04:37;;;;;;;3.40;3.20;;;;;;;21.38;100.00;-9262.72;5091881;28;20617;-63
2022/09/03 03:07:06;;;;;;;4.55;3.65;;;;;;;21.28;100.00;-10234.03;5091743;28;20219;-62
2022/09/03 03:09:33;;;;;;;4.03;3.83;;;;;;;21.14;100.00;-11851.91;5092005;28;20649;-62
2022/09/03 03:12:00;;;;;;;6.80;3.97;;;;;;;21.07;100.00;-13145.75;5091535;28;20276;-61
2022/09/03 03:14:26;;;;;;;3.57;3.47;;;;;;;20.98;100.00;-13144.44;5091400;28;20206;-62
2022/09/03 03:16:53;;;;;;;4.47;3.93;;;;;;;20.91;100.00;-13466.81;5091504;28;20184;-63
2022/09/03 03:19:20;;;;;;;5.80;4.00;;;;;;;20.91;100.00;-14113.78;5091812;28;20550;-62
2022/09/03 03:21:47;;;;;;;4.07;3.78;;;;;;;20.99;100.00;-13791.63;5091467;28;20188;-62
2022/09/03 03:24:15;;;;;;;3.97;3.77;;;;;;;20.84;100.00;-13789.16;5091424;28;20184;-63
2022/09/03 03:26:42;;;;;;;3.93;3.73;;;;;;;20.92;100.00;-13790.47;5091386;28;20200;-63
2022/09/03 03:29:15;;;;;;;3.50;3.20;;;;;;;21.12;100.00;-14440.81;5091637;28;20591;-62
2022/09/03 03:31:42;;;;;;;3.50;3.20;;;;;;;21.22;100.00;-13148.09;5091370;28;20244;-62
2022/09/03 03:34:09;;;;;;;3.40;3.10;;;;;;;21.00;100.00;-11526.28;5091554;28;20669;-62
2022/09/03 03:36:36;;;;;;;3.40;3.30;;;;;;;21.20;100.00;-12176.44;5091492;28;20643;-62
2022/09/03 03:39:04;;;;;;;3.92;3.63;;;;;;;21.28;100.00;-11529.84;5091135;28;20220;-62
2022/09/03 03:41:33;;;;;;;3.05;2.95;;;;;;;21.34;100.00;-10882.72;5091384;28;20611;-62
2022/09/03 03:44:02;;;;;;;3.23;2.93;;;;;;;21.26;100.00;-10233.81;5091072;28;20207;-62
2022/09/03 03:46:31;;;;;;;3.00;2.90;;;;;;;21.43;100.00;-9587.34;5091129;28;20223;-62
2022/09/03 03:48:59;;;;;;;2.70;2.60;;;;;;;21.39;100.00;-9586.97;5091036;28;20189;-64
2022/09/03 03:51:26;;;;;;;3.78;2.97;;;;;;;21.25;100.00;-9261.50;5091157;28;20184;-62
2022/09/03 03:53:55;;;;;;;2.80;2.70;;;;;;;21.19;100.00;-8936.81;5094893;28;20193;-62
2022/09/03 03:56:24;;;;;;;2.90;2.80;;;;;;;21.12;100.00;-10232.28;5094844;28;20176;-62
2022/09/03 03:58:52;;;;;;;2.47;2.38;;;;;;;21.23;100.00;-8613.03;5094867;28;20210;-62
2022/09/03 04:01:21;;;;;;;3.13;2.92;;;;;;;21.16;100.00;-11528.34;5095083;28;20658;-61
2022/09/03 04:03:48;;;;;;;3.30;3.20;;;;;;;21.16;100.00;-11528.28;5094593;28;20204;-62
2022/09/03 04:06:17;;;;;;;3.47;3.17;;;;;;;21.17;100.00;-12176.09;5094679;28;20220;-61
2022/09/03 04:08:46;;;;;;;3.20;3.10;;;;;;;21.30;100.00;-12177.84;5095090;28;20696;-62
2022/09/03 04:11:16;;;;;;;3.27;3.00;;;;;;;21.32;100.00;-11530.41;5094932;28;20234;-62
2022/09/03 04:13:45;;;;;;;3.22;3.13;;;;;;;21.20;100.00;-11528.81;5094541;28;20286;-62
2022/09/03 04:16:15;;;;;;;2.97;2.87;;;;;;;21.22;100.00;-11205.22;5094475;28;20212;-62
2022/09/03 04:18:42;;;;;;;3.50;3.17;;;;;;;21.04;100.00;-13468.88;5092864;28;20210;-62
2022/09/03 04:21:10;;;;;;;3.43;3.30;;;;;;;21.05;100.00;-13792.53;5094550;28;20184;-62
2022/09/03 04:23:39;;;;;;;3.97;3.70;;;;;;;20.98;100.00;-14438.53;5094338;28;20633;-62
2022/09/03 04:26:07;;;;;;;3.90;3.72;;;;;;;21.10;100.00;-13146.13;5094744;28;20184;-62
2022/09/03 04:28:35;;;;;;;3.90;3.70;;;;;;;21.08;100.00;-11527.31;5094457;28;20206;-62
2022/09/03 04:31:03;;;;;;;3.23;3.13;;;;;;;21.15;100.00;-11204.38;5094553;28;20645;-63
2022/09/03 04:33:31;;;;;;;4.38;4.07;;;;;;;21.17;100.00;-10232.84;5094633;28;20196;-62
2022/09/03 04:36:05;;;;;;;4.00;3.70;;;;;;;21.09;100.00;-9907.97;5094095;28;20195;-61
2022/09/03 04:38:32;;;;;;;4.43;3.60;;;;;;;21.20;100.00;-9261.03;5094018;28;20192;-61
2022/09/03 04:41:00;;;;;;;4.03;3.83;;;;;;;21.10;100.00;-8936.00;5094018;28;20219;-61
2022/09/03 04:43:28;;;;;;;5.30;4.40;;;;;;;21.29;100.00;-8937.69;5094215;28;20284;-63
2022/09/03 04:45:59;;;;;;;4.30;4.10;;;;;;;21.23;100.00;-6667.47;5092819;28;20235;-62
2022/09/03 04:48:26;;;;;;;4.37;4.27;;;;;;;21.34;100.00;-6019.09;5093858;28;20180;-62
2022/09/03 04:50:55;;;;;;;4.13;3.83;;;;;;;21.33;100.00;-4720.91;5092700;28;20280;-62
2022/09/03 04:53:22;;;;;;;4.30;3.90;;;;;;;21.37;100.00;-3097.44;5093830;28;20184;-62
2022/09/03 04:55:49;;;;;;;4.47;4.28;;;;;;;20.95;100.00;-3422.28;5093678;28;20188;-62
2022/09/03 04:58:17;;;;;;;3.77;3.50;;;;;;;21.18;100.00;-2772.88;5093768;28;20188;-62
2022/09/03 05:00:43;;;;;;;3.90;3.70;;;;;;;21.21;100.00;-2448.06;5093717;28;20188;-62
2022/09/03 05:03:11;;;;;;;4.30;4.20;;;;;;;21.32;100.00;-823.34;5093436;28;20538;-62
2022/09/03 05:05:38;;;;;;;3.97;3.78;;;;;;;21.39;100.00;152.16;5093646;28;20198;-62
2022/09/03 05:08:07;;;;;;;4.60;4.30;;;;;;;21.43;100.00;802.75;5093522;28;20233;-62
2022/09/03 05:10:34;;;;;;;4.30;4.00;;;;;;;21.43;100.00;1453.22;5093787;28;20724;-61
2022/09/03 05:13:03;;;;;;;4.95;4.65;;;;;;;21.41;100.00;2103.63;5093828;28;20180;-62
2022/09/03 05:15:31;;;;;;;4.97;4.68;;;;;;;21.39;100.00;4055.94;5093657;28;20192;-62
2022/09/03 05:18:00;;;;;;;5.60;5.30;;;;;;;21.39;100.00;5358.25;5093281;28;20223;-62
2022/09/03 05:20:28;;;;;;;6.20;5.90;;;;;;;21.33;100.00;7311.50;5093303;28;20184;-63
2022/09/03 05:22:55;;;;;;;6.70;6.32;;;;;;;21.14;100.00;7308.28;5093113;28;20204;-63
2022/09/03 05:25:24;;;;;;;7.03;6.40;;;;;;;21.11;100.00;7633.47;5093138;28;20270;-62
2022/09/03 05:27:53;;;;;;;7.00;6.60;;;;;;;21.13;100.00;8285.25;5093450;28;20553;-62
2022/09/03 05:30:22;;;;;;;7.40;7.00;;;;;;;21.06;100.00;8609.69;5093384;28;20578;-63
2022/09/03 05:32:49;;;;;;;7.30;6.97;;;;;;;21.05;100.00;7632.38;5092936;28;20196;-62
2022/09/03 05:35:16;;;;;;;7.47;6.95;;;;;;;21.12;100.00;7633.56;5093567;28;20492;-61
2022/09/03 05:37:43;;;;;;;6.93;6.35;;;;;;;21.35;100.00;8941.41;5093222;28;20188;-62
2022/09/03 05:40:11;;;;;;;7.25;6.68;;;;;;;21.59;100.00;16454.66;5093157;28;20199;-62
2022/09/03 05:42:39;;;;;;;7.75;6.97;;;;;;;21.96;100.00;26292.00;5092688;28;20278;-62
2022/09/03 05:45:09;;;;;;;7.55;6.80;;;;;;;22.36;100.00;41113.13;5092757;28;20194;-62
2022/09/03 05:47:38;;;;;;;8.02;7.22;;;;;;;22.35;100.00;46060.91;5092575;28;20227;-61
2022/09/03 05:50:07;;;;;;;7.57;7.15;;;;;;;22.34;100.00;47711.19;5092709;28;20185;-62
2022/09/03 05:52:34;;;;;;;7.32;6.80;;;;;;;22.50;100.00;47063.34;5092749;28;20580;-62
2022/09/03 05:55:02;;;;;;;7.57;6.90;;;;;;;22.63;100.00;57663.00;5092603;28;20188;-61
2022/09/03 05:57:29;;;;;;;7.85;7.30;;;;;;;22.57;100.00;63959.31;5092967;28;20554;-62
2022/09/03 05:59:59;;;;;;;9.07;7.20;;;;;;;22.52;100.00;55333.31;5092534;28;20192;-62
2022/09/03 06:02:26;;;;;;;8.18;7.65;;;;;;;22.58;100.00;56663.97;5092833;28;20203;-62
2022/09/03 06:04:53;;;;;;;7.93;7.28;;;;;;;22.44;100.00;64941.03;5092739;28;20184;-62
2022/09/03 06:07:20;;;;;;;7.75;7.32;;;;;;;22.29;100.00;60944.31;5092692;28;20215;-62
2022/09/03 06:09:47;;;;;;;8.13;7.60;;;;;;;22.06;100.00;44388.50;5092592;28;20574;-63
2022/09/03 06:12:14;;;;;;;9.43;8.57;;;;;;;21.86;100.00;41736.22;5092553;28;20659;-62
2022/09/03 06:14:44;;;;;;;9.30;8.70;;;;;;;21.67;100.00;36128.19;5092267;28;20674;-62
2022/09/03 06:17:13;;;;;;;9.00;8.48;;;;;;;21.74;100.00;35145.94;5091937;28;20622;-62
2022/09/03 06:19:40;;;;;;;9.05;8.63;;;;;;;21.66;100.00;37771.97;5092203;28;20215;-62
2022/09/03 06:22:07;;;;;;;9.00;8.25;;;;;;;21.67;100.00;37114.44;5092136;28;20192;-62
2022/09/03 06:24:34;;;;;;;9.05;8.45;;;;;;;21.48;100.00;31845.16;5092064;28;20294;-61
2022/09/03 06:27:01;;;;;;;9.18;8.55;;;;;;;21.37;100.00;26591.78;5090860;28;20195;-62
2022/09/03 06:29:28;;;;;;;9.73;8.95;;;;;;;21.33;100.00;24623.97;5091970;28;20188;-62
2022/09/03 06:31:55;;;;;;;9.10;8.30;;;;;;;21.50;100.00;28893.16;5092375;28;20642;-62
2022/09/03 06:34:26;;;;;;;9.88;8.90;;;;;;;21.71;100.00;30873.22;5091953;28;20185;-62
2022/09/03 06:36:52;;;;;;;9.40;8.60;;;;;;;21.97;100.00;40096.75;5092016;28;20245;-62
2022/09/03 06:39:19;;;;;;;9.10;8.57;;;;;;;22.39;100.00;57970.50;5092218;28;20191;-63
2022/09/03 06:41:50;;;;;;;9.15;8.35;;;;;;;22.54;100.00;68939.50;5092334;28;20198;-62
2022/09/03 06:44:17;;;;;;;9.20;8.52;;;;;;;22.48;100.00;93287.69;5091660;28;20216;-62
2022/09/03 06:46:44;;;;;;;9.43;8.65;;;;;;;23.12;100.00;117940.81;5091886;28;20253;-62
2022/09/03 06:49:12;;;;;;;9.52;7.75;;;;;;;23.88;100.00;152044.03;5091701;28;20187;-62
2022/09/03 06:51:42;;;;;;;8.93;8.10;;;;;;;24.24;100.00;152133.44;5091749;28;20184;-61
2022/09/03 06:54:11;;;;;;;8.68;7.85;;;;;;;24.04;100.00;152084.88;5091971;28;20253;-62
2022/09/03 06:56:39;;;;;;;8.50;7.95;;;;;;;23.81;100.00;152026.13;5091776;28;20188;-62
2022/09/03 06:59:08;;;;;;;8.75;8.13;;;;;;;23.43;100.00;151929.09;5091971;28;20282;-64
2022/09/03 07:01:39;;;;;;;8.63;8.23;;;;;;;23.02;100.00;151825.75;5091885;28;20208;-62
2022/09/03 07:04:07;;;;;;;8.63;8.13;;;;;;;22.80;100.00;125643.69;5091466;28;20200;-62
2022/09/03 07:06:37;;;;;;;8.63;8.10;;;;;;;22.74;100.00;103390.97;5091970;28;20532;-62
2022/09/03 07:09:06;;;;;;;8.77;8.15;;;;;;;22.61;100.00;93307.41;5091617;28;20280;-62
2022/09/03 07:11:34;;;;;;;7.90;7.50;;;;;;;22.55;100.00;88614.06;5091554;28;20184;-62
2022/09/03 07:14:03;;;;;;;7.78;7.28;;;;;;;22.33;100.00;80567.88;5091762;28;20184;-62
2022/09/03 07:16:32;;;;;;;8.50;8.00;;;;;;;22.30;100.00;74899.97;5091447;28;20195;-62
2022/09/03 07:19:00;;;;;;;9.27;8.77;;;;;;;22.25;100.00;76558.50;5091373;28;20222;-62
2022/09/03 07:21:28;;;;;;;8.65;8.25;;;;;;;22.01;100.00;70872.06;5091534;28;20241;-62
2022/09/03 07:23:56;;;;;;;8.93;8.40;;;;;;;22.05;100.00;64898.25;5091286;28;20208;-62
2022/09/03 07:26:26;;;;;;;9.40;8.73;;;;;;;21.91;100.00;56930.53;5091414;28;20187;-62
2022/09/03 07:28:54;;;;;;;9.90;9.38;;;;;;;21.74;100.00;51624.34;5095492;28;20278;-62
2022/09/03 07:31:24;;;;;;;10.10;9.43;;;;;;;21.59;100.00;42704.94;5095426;28;20184;-62
2022/09/03 07:33:54;;;;;;;9.50;9.00;;;;;;;21.53;100.00;36119.19;5095312;28;20245;-61
2022/09/03 07:36:22;;;;;;;11.32;10.43;;;;;;;21.19;100.00;31828.88;5094398;28;20199;-62
2022/09/03 07:38:49;;;;;;;10.68;10.07;;;;;;;21.20;100.00;29205.31;5095586;28;20694;-62
2022/09/03 07:41:16;;;;;;;10.43;9.73;;;;;;;21.28;100.00;25604.28;5095520;28;20184;-63
2022/09/03 07:43:47;;;;;;;10.88;10.30;;;;;;;21.15;100.00;26908.69;5095445;28;20215;-63
2022/09/03 07:46:22;;;;;;;11.82;11.05;;;;;;;21.06;100.00;25593.94;5095384;28;20327;-62
2022/09/03 07:48:50;;;;;;;11.27;10.57;;;;;;;21.08;100.00;26577.66;5095056;28;20191;-62
2022/09/03 07:51:18;;;;;;;11.23;10.63;;;;;;;21.02;100.00;23301.00;5095035;28;20177;-62
2022/09/03 07:53:46;;;;;;;11.13;9.93;;;;;;;20.82;100.00;21330.28;5095220;28;20184;-62
2022/09/03 07:56:13;;;;;;;11.17;10.57;;;;;;;20.96;100.00;22317.00;5095431;28;20188;-62
2022/09/03 07:58:41;;;;;;;10.37;9.77;;;;;;;21.03;100.00;22319.94;5095015;28;20218;-61
2022/09/03 08:01:10;;;;;;;10.30;9.80;;;;;;;21.19;100.00;25600.28;5095196;28;20281;-62
2022/09/03 08:03:38;;;;;;;10.95;10.18;;;;;;;21.31;100.00;34134.25;5095326;28;20701;-62
2022/09/03 08:06:07;;;;;;;10.05;9.45;;;;;;;21.49;100.00;40063.56;5095304;28;20260;-62
2022/09/03 08:08:36;;;;;;;11.63;10.73;;;;;;;21.59;100.00;46330.47;5094713;28;20191;-61
2022/09/03 08:11:09;;;;;;;11.65;10.60;;;;;;;21.55;100.00;47646.06;5093920;28;20180;-62
2022/09/03 08:13:39;;;;;;;10.82;10.05;;;;;;;21.66;100.00;50296.13;5094986;28;20257;-62
2022/09/03 08:16:07;;;;;;;10.75;10.00;;;;;;;22.10;100.00;60924.44;5094617;28;20290;-61
2022/09/03 08:18:37;;;;;;;10.07;9.35;;;;;;;22.49;100.00;76255.94;5094798;28;20188;-61
2022/09/03 08:21:07;;;;;;;9.77;9.25;;;;;;;22.53;100.00;103690.94;5094495;28;20190;-62
2022/09/03 08:23:37;;;;;;;8.77;8.27;;;;;;;22.78;100.00;121585.94;5094311;28;20556;-62
2022/09/03 08:26:04;;;;;;;8.65;8.25;;;;;;;22.67;100.00;119539.19;5094329;28;20222;-62
2022/09/03 08:28:31;;;;;;;8.98;8.40;;;;;;;22.76;100.00;116183.13;5094331;28;20184;-62
2022/09/03 08:30:58;;;;;;;8.25;7.82;;;;;;;22.85;100.00;116875.22;5093484;28;20242;-62
2022/09/03 08:33:36;;;;;;;7.40;7.00;;;;;;;23.28;100.00;134552.28;5094842;28;20203;-62
2022/09/03 08:36:08;;;;;;;7.55;7.25;;;;;;;23.37;100.00;151913.81;5094239;28;20210;-62
2022/09/03 08:38:37;;;;;;;7.78;7.15;;;;;;;23.33;100.00;151903.59;5093390;28;20224;-62
2022/09/03 08:41:09;;;;;;;7.45;7.15;;;;;;;23.23;100.00;151880.63;5094476;28;20184;-62
2022/09/03 08:43:59;;;;;;;7.25;6.85;;;;;;;23.49;100.00;151945.75;5094034;28;20190;-62
2022/09/03 08:46:49;;;;;;;7.40;7.10;;;;;;;23.57;100.00;151966.19;5093828;28;20266;-63
2022/09/03 08:49:22;;;;;;;8.23;6.82;;;;;;;23.66;100.00;151989.16;5094015;28;20187;-62
2022/09/03 08:51:52;;;;;;;7.70;7.40;;;;;;;23.90;100.00;152047.84;5094009;28;20195;-62
2022/09/03 08:54:23;;;;;;;7.53;7.07;;;;;;;23.84;100.00;152033.84;5094135;28;20203;-62
2022/09/03 08:56:51;;;;;;;7.47;7.07;;;;;;;23.98;100.00;152069.53;5094151;28;20188;-63
2022/09/03 08:59:20;;;;;;;7.53;7.13;;;;;;;24.34;100.00;152160.25;5094110;28;20181;-62
2022/09/03 09:01:55;;;;;;;7.10;6.80;;;;;;;24.79;100.00;152273.91;5092531;28;20195;-62
2022/09/03 09:04:36;;;;;;;7.38;6.82;;;;;;;24.71;100.00;152253.47;5093867;28;20204;-62
2022/09/03 09:07:12;;;;;;;7.18;6.78;;;;;;;24.97;100.00;152319.94;5093638;28;20180;-62
2022/09/03 09:09:48;;;;;;;7.35;6.97;;;;;;;25.14;100.00;152360.81;5075731;28;20624;-63
2022/09/03 09:12:24;;;;;;;7.68;7.13;;;;;;;25.35;100.00;152414.47;5093733;28;20176;-62
2022/09/03 09:15:06;;;;;;;6.88;6.45;;;;;;;25.23;100.00;152385.09;5093737;28;20672;-62
2022/09/03 09:17:54;;;;;;;7.05;6.75;;;;;;;25.29;100.00;152400.41;5093593;28;20188;-62
2022/09/03 09:20:29;;;;;;;7.43;7.03;;;;;;;25.08;100.00;152345.50;5093700;28;20217;-62
2022/09/03 09:23:01;;;;;;;7.15;6.78;;;;;;;25.23;100.00;152383.81;5093504;28;20203;-61
2022/09/03 09:25:31;;;;;;;7.15;6.85;;;;;;;25.02;100.00;152331.44;5093122;28;20210;-62
2022/09/03 09:28:01;;;;;;;7.75;7.43;;;;;;;25.05;100.00;152337.81;5093611;28;20180;-63
2022/09/03 09:30:30;;;;;;;6.60;6.30;;;;;;;25.11;100.00;152353.16;5093483;28;20191;-62
2022/09/03 09:32:59;;;;;;;6.40;6.05;;;;;;;25.40;100.00;152427.25;5093556;28;20200;-62
2022/09/03 09:35:26;;;;;;;6.40;6.10;;;;;;;25.42;100.00;152432.34;5093172;28;20587;-62
2022/09/03 09:37:55;;;;;;;5.68;5.47;;;;;;;25.40;100.00;152427.25;5092983;28;20188;-62
2022/09/03 09:40:31;;;;;;;6.60;6.22;;;;;;;25.18;100.00;152372.31;5093089;28;20191;-62
2022/09/03 09:43:06;;;;;;;6.18;5.97;;;;;;;24.97;100.00;152319.94;5093086;28;20188;-61
2022/09/03 09:45:34;;;;;;;6.30;6.10;;;;;;;25.14;100.00;152360.81;5092927;28;20678;-62
2022/09/03 09:48:03;;;;;;;6.13;5.93;;;;;;;25.22;100.00;152382.53;5093110;28;20372;-62
2022/09/03 09:50:30;;;;;;;6.60;6.20;;;;;;;24.97;100.00;152319.94;5092564;28;20195;-62
2022/09/03 09:53:04;;;;;;;6.55;6.35;;;;;;;25.04;100.00;152336.53;5092714;28;20184;-62
2022/09/03 09:55:33;;;;;;;5.95;5.75;;;;;;;25.42;100.00;152433.63;5091773;28;20206;-63
2022/09/03 09:58:09;;;;;;;6.65;6.20;;;;;;;25.72;100.00;152507.81;5092925;28;20212;-62
2022/09/03 10:00:36;;;;;;;6.60;6.13;;;;;;;25.50;100.00;152452.84;5092891;28;20654;-62
2022/09/03 10:03:12;;;;;;;5.68;5.30;;;;;;;26.00;100.00;152579.41;5092548;28;20191;-62
2022/09/03 10:05:40;;;;;;;5.80;5.50;;;;;;;26.26;100.00;152645.94;5092766;28;20212;-61
2022/09/03 10:08:20;;;;;;;5.55;5.25;;;;;;;26.51;100.00;152708.59;5092442;28;20184;-66
2022/09/03 10:10:50;;;;;;;5.57;5.28;;;;;;;26.58;100.00;152726.47;5092356;28;20677;-62
2022/09/03 10:13:23;;;;;;;4.95;4.65;;;;;;;26.95;100.00;152818.56;5092732;28;20194;-62
2022/09/03 10:15:55;;;;;;;4.72;4.57;;;;;;;26.88;100.00;152801.97;5092286;28;20215;-63
2022/09/03 10:18:37;;;;;;;5.28;4.85;;;;;;;26.66;100.00;152746.94;5092520;28;20635;-62
2022/09/03 10:21:09;;;;;;;6.25;5.88;;;;;;;26.13;100.00;152612.66;5092238;28;20275;-63
2022/09/03 10:23:50;;;;;;;6.00;5.60;;;;;;;25.67;100.00;152496.34;5092326;28;20214;-62
2022/09/03 10:26:30;;;;;;;4.80;4.70;;;;;;;25.38;100.00;152422.13;5092291;28;20190;-62
2022/09/03 10:28:59;;;;;;;5.97;5.53;;;;;;;24.90;100.00;152302.09;5092255;28;20214;-62
2022/09/03 10:31:39;;;;;;;5.53;5.20;;;;;;;24.87;100.00;152294.38;5091950;28;20180;-62
2022/09/03 10:34:12;;;;;;;5.55;5.20;;;;;;;24.68;100.00;152245.81;5091973;28;20191;-62
2022/09/03 10:36:47;;;;;;;5.32;5.03;;;;;;;24.51;100.00;152202.41;5092042;28;20225;-63
2022/09/03 10:39:22;;;;;;;5.80;5.47;;;;;;;24.57;100.00;152217.69;5092416;28;20245;-62
2022/09/03 10:42:05;;;;;;;4.78;4.60;;;;;;;24.35;100.00;152162.81;5090815;28;20191;-63
2022/09/03 10:44:46;;;;;;;5.20;5.00;;;;;;;24.30;100.00;152150.06;5091811;28;20212;-62
2022/09/03 10:47:31;;;;;;;5.05;4.85;;;;;;;24.32;100.00;152153.84;5091788;28;20234;-62
2022/09/03 10:50:03;;;;;;;5.40;5.07;;;;;;;24.92;100.00;152305.88;5092117;28;20184;-62
2022/09/03 10:52:38;;;;;;;4.88;4.70;;;;;;;25.61;100.00;152480.97;5091776;28;20196;-62
2022/09/03 10:55:18;;;;;;;5.10;4.72;;;;;;;25.69;100.00;152501.44;5091755;28;20538;-62
2022/09/03 10:57:54;;;;;;;5.00;4.80;;;;;;;25.51;100.00;152455.34;5091646;28;20184;-62
2022/09/03 11:00:22;;;;;;;4.90;4.70;;;;;;;25.54;100.00;152461.81;5091668;28;20227;-63
2022/09/03 11:03:26;;;;;;;4.70;4.40;;;;;;;25.72;100.00;152507.81;5091242;28;20184;-62
2022/09/03 11:06:01;;;;;;;5.25;4.72;;;;;;;25.80;100.00;152529.53;5091635;28;20199;-61
2022/09/03 11:08:33;;;;;;;4.60;4.40;;;;;;;25.81;100.00;152532.09;5091507;28;20219;-62
2022/09/03 11:11:09;;;;;;;5.10;4.80;;;;;;;25.85;100.00;152542.31;5091857;28;20191;-62
2022/09/03 11:13:44;;;;;;;4.72;4.47;;;;;;;25.75;100.00;152515.50;5091682;28;20188;-62
2022/09/03 11:16:18;;;;;;;4.90;4.70;;;;;;;25.16;100.00;152367.22;5091778;28;20211;-62
2022/09/03 11:18:50;;;;;;;4.93;4.72;;;;;;;25.21;100.00;152379.97;5091415;28;20187;-62
2022/09/03 11:21:19;;;;;;;4.88;4.68;;;;;;;25.15;100.00;152363.38;5091695;28;20237;-62
2022/09/03 11:23:51;;;;;;;4.63;4.45;;;;;;;25.08;100.00;152345.50;5090468;28;20200;-62
2022/09/03 11:26:21;;;;;;;4.57;4.38;;;;;;;25.08;100.00;152345.50;5091312;28;20215;-62
2022/09/03 11:28:58;;;;;;;4.63;4.30;;;;;;;24.79;100.00;152272.63;5091317;28;20184;-63
2022/09/03 11:31:39;;;;;;;4.60;4.30;;;;;;;24.89;100.00;152299.50;5091301;28;20179;-62
2022/09/03 11:34:08;;;;;;;4.95;4.75;;;;;;;24.80;100.00;152276.47;5091664;28;20591;-62
2022/09/03 11:36:37;;;;;;;5.07;4.78;;;;;;;24.81;100.00;152279.03;5091173;28;20188;-62
2022/09/03 11:39:18;;;;;;;5.07;4.88;;;;;;;24.99;100.00;152323.78;5091370;28;20177;-62
2022/09/03 11:41:58;;;;;;;5.00;4.80;;;;;;;25.08;100.00;152345.50;5091594;28;20274;-62
2022/09/03 11:44:36;;;;;;;4.85;4.65;;;;;;;24.86;100.00;152290.59;5091401;28;20188;-62